createdAt,value
2018-04-12T00:02:12.526Z,43.43
2018-04-12T00:04:42.074Z,43.30
2018-04-12T00:07:11.188Z,43.52
2018-04-12T00:09:40.350Z,43.47
2018-04-12T00:12:09.763Z,43.49
2018-04-12T00:14:38.890Z,43.52
2018-04-12T00:17:08.423Z,43.44
2018-04-12T00:19:37.674Z,43.62
2018-04-12T00:22:07.037Z,43.64
2018-04-12T00:24:36.488Z,43.78
2018-04-12T00:27:05.742Z,43.88
2018-04-12T00:29:35.078Z,43.83
2018-04-12T00:32:04.267Z,43.97
2018-04-12T00:34:33.684Z,43.92
2018-04-12T00:37:03.159Z,44.04
2018-04-12T00:39:32.731Z,43.95
2018-04-12T00:42:02.160Z,43.96
2018-04-12T00:44:32.178Z,43.93
2018-04-12T00:47:01.765Z,44.24
2018-04-12T00:49:31.136Z,43.92
2018-04-12T00:52:00.593Z,44.02
2018-04-12T00:54:29.894Z,44.02
2018-04-12T00:56:59.108Z,44.11
2018-04-12T00:59:28.453Z,43.87
2018-04-12T01:01:57.621Z,44.13
2018-04-12T01:04:26.810Z,44.08
2018-04-12T01:06:56.630Z,44.01
2018-04-12T01:09:25.862Z,44.02
2018-04-12T01:11:55.124Z,44.20
2018-04-12T01:14:24.617Z,44.19
2018-04-12T01:16:53.833Z,44.18
2018-04-12T01:19:23.256Z,44.17
2018-04-12T01:21:53.278Z,44.24
2018-04-12T01:24:22.492Z,44.22
2018-04-12T01:26:51.738Z,44.22
2018-04-12T01:29:20.840Z,44.34
2018-04-12T01:31:50.630Z,44.38
2018-04-12T01:34:20.128Z,44.43
2018-04-12T01:36:49.675Z,44.50
2018-04-12T01:39:19.044Z,44.52
2018-04-12T01:41:48.359Z,44.54
2018-04-12T01:44:17.903Z,44.55
2018-04-12T01:46:48.462Z,44.59
2018-04-12T01:49:17.841Z,44.59
2018-04-12T01:51:47.658Z,44.56
2018-04-12T01:54:17.272Z,44.65
2018-04-12T01:56:46.548Z,44.57
2018-04-12T01:59:16.385Z,44.37
2018-04-12T02:01:46.202Z,44.71
2018-04-12T02:04:15.639Z,44.67
2018-04-12T02:06:45.010Z,44.45
2018-04-12T02:09:14.982Z,44.55
2018-04-12T02:11:44.269Z,44.65
2018-04-12T02:14:14.146Z,44.47
2018-04-12T02:16:43.568Z,44.32
2018-04-12T02:19:12.840Z,44.26
2018-04-12T02:21:42.716Z,44.33
2018-04-12T02:24:12.001Z,44.33
2018-04-12T02:26:41.589Z,44.27
2018-04-12T02:29:10.915Z,44.15
2018-04-12T02:31:39.989Z,43.95
2018-04-12T02:34:09.646Z,44.12
2018-04-12T02:36:39.238Z,44.16
2018-04-12T02:39:09.361Z,44.08
2018-04-12T02:41:54.637Z,44.02
2018-04-12T02:44:30.469Z,44.09
2018-04-12T02:47:00.166Z,44.04
2018-04-12T02:49:29.771Z,44.01
2018-04-12T02:51:59.377Z,43.97
2018-04-12T02:54:29.629Z,43.94
2018-04-12T02:56:59.626Z,43.89
2018-04-12T02:59:29.075Z,44.03
2018-04-12T03:01:58.507Z,44.03
2018-04-12T03:04:42.264Z,43.79
2018-04-12T03:07:11.685Z,43.91
2018-04-12T03:09:41.456Z,43.98
2018-04-12T03:12:10.801Z,43.91
2018-04-12T03:14:40.250Z,43.87
2018-04-12T03:17:09.714Z,43.89
2018-04-12T03:19:39.067Z,43.91
2018-04-12T03:22:08.497Z,43.82
2018-04-12T03:27:32.971Z,43.81
2018-04-12T03:30:07.203Z,43.68
2018-04-12T03:32:51.999Z,43.64
2018-04-12T03:35:21.609Z,43.71
2018-04-12T03:37:51.639Z,43.57
2018-04-12T03:40:21.095Z,43.58
2018-04-12T03:42:50.703Z,43.45
2018-04-12T03:45:20.673Z,43.53
2018-04-12T03:47:56.546Z,43.48
2018-04-12T03:50:25.890Z,43.50
2018-04-12T03:52:55.160Z,43.54
2018-04-12T03:55:24.860Z,43.45
2018-04-12T03:57:54.002Z,43.46
2018-04-12T04:00:23.544Z,43.54
2018-04-12T04:02:52.845Z,43.38
2018-04-12T04:05:22.133Z,43.41
2018-04-12T04:07:51.841Z,43.38
2018-04-12T04:10:21.131Z,43.39
2018-04-12T04:12:50.697Z,43.46
2018-04-12T04:15:31.402Z,43.44
2018-04-12T04:18:23.136Z,43.42
2018-04-12T04:21:16.185Z,43.44
2018-04-12T04:23:45.969Z,43.38
2018-04-12T04:26:15.351Z,43.38
2018-04-12T04:28:44.841Z,43.39
2018-04-12T04:31:14.076Z,43.37
2018-04-12T04:33:44.123Z,43.44
2018-04-12T04:36:13.268Z,43.35
2018-04-12T04:38:42.957Z,43.34
2018-04-12T04:41:12.268Z,43.41
2018-04-12T04:43:41.333Z,43.31
2018-04-12T04:46:11.213Z,43.42
2018-04-12T04:48:41.001Z,43.47
2018-04-12T04:51:09.916Z,43.56
2018-04-12T04:53:40.296Z,43.60
2018-04-12T04:56:09.956Z,43.65
2018-04-12T04:58:39.248Z,43.63
2018-04-12T05:01:09.557Z,43.67
2018-04-12T05:03:39.034Z,43.82
2018-04-12T05:06:08.548Z,43.83
2018-04-12T05:08:38.415Z,43.92
2018-04-12T05:11:07.761Z,43.89
2018-04-12T05:13:36.976Z,44.06
2018-04-12T05:16:06.662Z,44.08
2018-04-12T05:18:35.930Z,44.14
2018-04-12T05:21:05.239Z,44.08
2018-04-12T05:23:35.299Z,44.18
2018-04-12T05:26:04.785Z,44.26
2018-04-12T05:28:34.094Z,44.25
2018-04-12T05:31:03.303Z,44.43
2018-04-12T05:33:32.190Z,44.29
2018-04-12T05:36:01.886Z,44.32
2018-04-12T05:38:31.345Z,44.43
2018-04-12T05:41:00.724Z,44.17
2018-04-12T05:43:29.721Z,44.32
2018-04-12T05:45:59.435Z,44.28
2018-04-12T05:48:28.682Z,44.35
2018-04-12T05:50:59.118Z,44.34
2018-04-12T05:53:28.357Z,44.39
2018-04-12T05:55:57.779Z,44.32
2018-04-12T05:58:27.333Z,44.28
2018-04-12T06:00:56.728Z,44.29
2018-04-12T06:03:26.035Z,44.32
2018-04-12T06:05:55.458Z,44.33
2018-04-12T06:08:25.029Z,44.35
2018-04-12T06:10:53.997Z,44.24
2018-04-12T06:13:23.169Z,44.26
2018-04-12T06:15:52.328Z,44.21
2018-04-12T06:18:21.794Z,44.21
2018-04-12T06:20:51.292Z,44.21
2018-04-12T06:23:20.354Z,44.20
2018-04-12T06:25:49.814Z,44.19
2018-04-12T06:28:19.607Z,44.08
2018-04-12T06:30:49.031Z,44.21
2018-04-12T06:33:18.247Z,44.19
2018-04-12T06:35:47.490Z,44.21
2018-04-12T06:38:17.174Z,44.21
2018-04-12T06:40:46.296Z,44.13
2018-04-12T06:43:15.406Z,44.03
2018-04-12T06:45:44.683Z,44.16
2018-04-12T06:48:13.950Z,44.11
2018-04-12T06:50:43.804Z,43.96
2018-04-12T06:53:13.190Z,44.03
2018-04-12T06:55:45.764Z,44.14
2018-04-12T06:58:14.796Z,43.85
2018-04-12T07:00:44.448Z,43.76
2018-04-12T07:03:13.665Z,43.83
2018-04-12T07:05:43.008Z,43.80
2018-04-12T07:08:12.516Z,43.74
2018-04-12T07:10:41.682Z,43.76
2018-04-12T07:13:10.970Z,43.62
2018-04-12T07:15:40.609Z,43.62
2018-04-12T07:18:09.633Z,43.61
2018-04-12T07:20:38.879Z,43.68
2018-04-12T07:23:08.701Z,43.64
2018-04-12T07:25:37.717Z,43.68
2018-04-12T07:28:07.675Z,43.66
2018-04-12T07:30:37.082Z,43.54
2018-04-12T07:33:06.206Z,43.59
2018-04-12T07:35:36.228Z,43.59
2018-04-12T07:38:05.626Z,43.56
2018-04-12T07:40:37.163Z,43.48
2018-04-12T07:43:06.304Z,43.47
2018-04-12T07:45:35.749Z,43.51
2018-04-12T07:48:05.834Z,43.48
2018-04-12T07:50:36.417Z,43.50
2018-04-12T07:53:06.231Z,43.50
2018-04-12T07:55:35.713Z,43.47
2018-04-12T07:58:04.848Z,43.36
2018-04-12T08:00:34.333Z,43.35
2018-04-12T08:03:04.113Z,43.35
2018-04-12T08:05:33.098Z,43.33
2018-04-12T08:08:02.577Z,43.36
2018-04-12T08:10:32.106Z,43.43
2018-04-12T08:13:01.499Z,43.70
2018-04-12T08:15:32.031Z,43.58
2018-04-12T08:18:01.618Z,43.61
2018-04-12T08:20:41.253Z,43.78
2018-04-12T08:23:11.003Z,43.81
2018-04-12T08:25:40.987Z,43.73
2018-04-12T08:28:10.699Z,43.71
2018-04-12T08:30:42.616Z,43.92
2018-04-12T08:33:12.076Z,43.80
2018-04-12T08:35:41.345Z,43.78
2018-04-12T08:38:10.733Z,43.78
2018-04-12T08:40:40.761Z,43.76
2018-04-12T08:43:10.625Z,43.78
2018-04-12T08:45:40.393Z,43.69
2018-04-12T08:48:10.670Z,43.76
2018-04-12T08:50:40.858Z,43.82
2018-04-12T08:53:10.257Z,43.81
2018-04-12T08:55:40.126Z,43.76
2018-04-12T08:58:09.582Z,43.73
2018-04-12T09:00:39.850Z,43.87
2018-04-12T09:03:09.451Z,43.92
2018-04-12T09:05:39.086Z,43.80
2018-04-12T09:08:08.601Z,43.97
2018-04-12T09:10:38.568Z,43.90
2018-04-12T09:13:08.385Z,43.91
2018-04-12T09:15:39.269Z,43.89
2018-04-12T09:18:09.730Z,43.79
2018-04-12T09:20:39.725Z,43.85
2018-04-12T09:23:10.150Z,43.74
2018-04-12T09:25:39.487Z,43.73
2018-04-12T09:28:10.982Z,43.70
2018-04-12T09:30:41.023Z,43.64
2018-04-12T09:33:11.292Z,44.17
2018-04-12T09:35:43.582Z,44.36
2018-04-12T09:38:13.579Z,44.07
2018-04-12T09:40:44.378Z,44.15
2018-04-12T09:43:15.561Z,44.40
2018-04-12T09:45:48.957Z,46.95
2018-04-12T09:48:23.623Z,46.78
2018-04-12T09:50:57.426Z,46.28
2018-04-12T09:53:31.137Z,45.89
2018-04-12T09:56:04.360Z,45.49
2018-04-12T09:58:38.214Z,45.64
2018-04-12T10:01:15.769Z,44.49
2018-04-12T10:03:53.281Z,44.89
2018-04-12T10:06:28.500Z,44.17
2018-04-12T10:12:02.030Z,43.74
2018-04-12T10:14:38.301Z,43.42
2018-04-12T10:17:12.184Z,43.32
2018-04-12T10:19:47.730Z,42.40
2018-04-12T10:22:22.851Z,36.65
2018-04-12T10:24:57.924Z,39.27
2018-04-12T10:27:31.559Z,38.96
2018-04-12T10:30:06.673Z,38.10
2018-04-12T10:32:42.236Z,38.29
2018-04-12T10:35:15.118Z,38.36
2018-04-12T10:37:57.666Z,36.88
2018-04-12T10:40:35.907Z,36.10
2018-04-12T10:43:13.092Z,36.44
2018-04-12T10:45:52.720Z,37.47
2018-04-12T10:48:29.002Z,37.51
2018-04-12T10:51:06.911Z,37.37
2018-04-12T10:53:41.660Z,38.12
2018-04-12T10:56:14.459Z,38.10
2018-04-12T10:58:48.095Z,38.22
2018-04-12T11:01:27.908Z,38.23
2018-04-12T11:04:02.587Z,38.46
2018-04-12T11:06:38.239Z,38.22
2018-04-12T11:09:11.784Z,38.33
2018-04-12T11:11:45.040Z,38.66
2018-04-12T11:14:18.306Z,38.71
2018-04-12T11:16:51.545Z,37.94
2018-04-12T11:19:27.580Z,38.42
2018-04-12T11:22:01.042Z,38.51
2018-04-12T11:24:34.404Z,38.71
2018-04-12T11:27:07.293Z,38.90
2018-04-12T11:29:37.091Z,38.78
2018-04-12T11:32:06.472Z,39.15
2018-04-12T11:34:35.608Z,39.24
2018-04-12T11:37:04.776Z,39.13
2018-04-12T11:39:34.150Z,39.32
2018-04-12T11:42:02.810Z,39.37
2018-04-12T11:44:31.483Z,39.47
2018-04-12T11:47:00.677Z,39.51
2018-04-12T11:49:32.574Z,39.58
2018-04-12T11:52:02.641Z,39.62
2018-04-12T11:54:31.732Z,39.57
2018-04-12T11:57:00.962Z,39.26
2018-04-12T11:59:30.132Z,39.12
2018-04-12T12:01:58.961Z,39.36
2018-04-12T12:04:27.956Z,39.50
2018-04-12T12:06:56.873Z,39.53
2018-04-12T12:09:26.138Z,39.05
2018-04-12T12:11:55.146Z,39.40
2018-04-12T12:14:24.230Z,39.44
2018-04-12T12:16:53.140Z,39.31
2018-04-12T12:19:22.160Z,38.84
2018-04-12T12:21:51.509Z,39.26
2018-04-12T12:24:20.782Z,38.41
2018-04-12T12:26:50.103Z,38.57
2018-04-12T12:29:19.309Z,38.66
2018-04-12T12:31:48.376Z,34.59
2018-04-12T12:34:18.310Z,37.25
2018-04-12T12:36:47.163Z,38.29
2018-04-12T12:39:16.143Z,38.56
2018-04-12T12:41:45.237Z,38.60
2018-04-12T12:44:14.619Z,34.39
2018-04-12T12:46:44.015Z,36.12
2018-04-12T12:49:12.693Z,36.84
2018-04-12T12:51:41.784Z,37.40
2018-04-12T12:54:10.809Z,37.72
2018-04-12T12:56:39.886Z,38.10
2018-04-12T12:59:08.678Z,38.05
2018-04-12T13:01:37.876Z,38.55
2018-04-12T13:04:06.997Z,38.32
2018-04-12T13:06:36.008Z,38.73
2018-04-12T13:09:05.343Z,38.79
2018-04-12T13:11:34.739Z,38.86
2018-04-12T13:14:03.632Z,38.91
2018-04-12T13:16:32.704Z,39.13
2018-04-12T13:19:01.597Z,39.15
2018-04-12T13:24:24.700Z,39.27
2018-04-12T13:26:53.780Z,39.41
2018-04-12T13:29:22.972Z,39.69
2018-04-12T13:31:52.205Z,39.69
2018-04-12T13:34:21.843Z,39.78
2018-04-12T13:36:51.029Z,39.94
2018-04-12T13:39:19.988Z,40.07
2018-04-12T13:41:49.021Z,40.27
2018-04-12T13:44:18.557Z,40.67
2018-04-12T13:46:47.482Z,40.95
2018-04-12T13:49:16.300Z,40.15
2018-04-12T13:51:45.493Z,40.09
2018-04-12T13:54:14.774Z,40.27
2018-04-12T13:56:43.951Z,41.10
2018-04-12T13:59:12.966Z,41.45
2018-04-12T14:01:42.396Z,41.55
2018-04-12T14:04:11.908Z,41.65
2018-04-12T14:06:41.189Z,41.55
2018-04-12T14:09:10.630Z,41.76
2018-04-12T14:11:39.936Z,42.17
2018-04-12T14:14:09.605Z,42.41
2018-04-12T14:16:38.718Z,42.42
2018-04-12T14:19:07.801Z,42.80
2018-04-12T14:21:37.077Z,43.02
2018-04-12T14:31:06.024Z,43.51
2018-04-12T14:33:35.334Z,43.78
2018-04-12T14:36:05.238Z,44.23
2018-04-12T14:38:34.708Z,44.43
2018-04-12T14:41:04.309Z,44.54
2018-04-12T14:43:33.427Z,45.07
2018-04-12T14:46:02.343Z,45.25
2018-04-12T14:48:31.393Z,45.67
2018-04-12T14:51:00.477Z,45.45
2018-04-12T14:55:55.656Z,43.97
2018-04-12T14:58:24.629Z,43.56
2018-04-12T15:00:53.686Z,43.16
2018-04-12T15:03:22.967Z,43.12
2018-04-12T15:05:52.370Z,43.41
2018-04-12T15:08:21.638Z,44.12
2018-04-12T15:10:51.709Z,44.39
2018-04-12T15:13:21.175Z,44.64
2018-04-12T15:15:50.420Z,44.77
2018-04-12T15:18:19.678Z,44.70
2018-04-12T15:20:48.581Z,44.78
2018-04-12T15:23:17.787Z,44.78
2018-04-12T15:25:47.376Z,45.02
2018-04-12T15:28:16.379Z,45.01
2018-04-12T15:30:45.374Z,45.17
2018-04-12T15:33:14.488Z,45.09
2018-04-12T15:35:43.544Z,45.36
2018-04-12T15:38:13.043Z,45.48
2018-04-12T15:40:42.365Z,45.55
2018-04-12T15:43:11.704Z,45.69
2018-04-12T15:45:41.015Z,46.06
2018-04-12T15:48:11.945Z,46.25
2018-04-12T15:50:41.172Z,46.22
2018-04-12T15:53:10.604Z,46.08
2018-04-12T15:55:41.531Z,46.52
2018-04-12T15:58:10.800Z,46.73
2018-04-12T16:00:43.228Z,46.73
2018-04-12T16:03:13.201Z,46.63
2018-04-12T16:05:42.476Z,46.68
2018-04-12T16:08:14.539Z,46.81
2018-04-12T16:10:43.881Z,46.52
2018-04-12T16:13:13.740Z,46.45
2018-04-12T16:15:43.188Z,46.40
2018-04-12T16:18:13.049Z,46.36
2018-04-12T16:20:42.286Z,46.25
2018-04-12T16:23:14.783Z,46.43
2018-04-12T16:25:46.740Z,46.41
2018-04-12T16:28:16.498Z,46.49
2018-04-12T16:30:46.589Z,46.64
2018-04-12T16:33:16.444Z,46.64
2018-04-12T16:35:46.032Z,47.40
2018-04-12T16:38:16.980Z,47.75
2018-04-12T16:40:46.489Z,47.88
2018-04-12T16:43:16.302Z,47.91
2018-04-12T16:45:45.823Z,47.74
2018-04-12T16:48:16.600Z,48.00
2018-04-12T16:50:46.378Z,47.73
2018-04-12T16:53:15.951Z,47.58
2018-04-12T16:55:45.944Z,47.33
2018-04-12T16:58:15.809Z,47.41
2018-04-12T17:00:45.484Z,47.63
2018-04-12T17:03:15.975Z,47.41
2018-04-12T17:05:45.172Z,47.71
2018-04-12T17:08:14.609Z,47.41
2018-04-12T17:10:44.156Z,45.36
2018-04-12T17:13:13.916Z,44.56
2018-04-12T17:15:43.829Z,44.15
2018-04-12T17:18:13.566Z,43.79
2018-04-12T17:20:43.183Z,42.97
2018-04-12T17:23:12.712Z,42.61
2018-04-12T17:25:42.065Z,42.06
2018-04-12T17:28:11.820Z,41.76
2018-04-12T17:30:41.355Z,41.64
2018-04-12T17:33:11.088Z,41.22
2018-04-12T17:35:40.980Z,41.32
2018-04-12T17:38:10.926Z,41.24
2018-04-12T17:40:40.828Z,41.12
2018-04-12T17:43:10.732Z,41.18
2018-04-12T17:45:40.819Z,41.07
2018-04-12T17:48:10.219Z,40.85
2018-04-12T17:50:39.389Z,40.84
2018-04-12T17:53:08.608Z,41.30
2018-04-12T17:55:37.648Z,41.52
2018-04-12T17:58:07.052Z,41.39
2018-04-12T18:00:36.298Z,40.99
2018-04-12T18:03:05.769Z,40.96
2018-04-12T18:05:35.259Z,41.16
2018-04-12T18:08:04.389Z,40.91
2018-04-12T18:10:34.125Z,39.79
2018-04-12T18:13:03.680Z,37.78
2018-04-12T18:15:33.617Z,37.06
2018-04-12T18:18:03.135Z,37.41
2018-04-12T18:20:33.123Z,38.27
2018-04-12T18:23:02.215Z,38.58
2018-04-12T18:25:32.084Z,39.02
2018-04-12T18:28:01.708Z,39.34
2018-04-12T18:30:31.159Z,39.57
2018-04-12T18:33:01.499Z,39.95
2018-04-12T18:35:31.062Z,40.05
2018-04-12T18:38:00.439Z,40.38
2018-04-12T18:40:30.451Z,40.36
2018-04-12T18:43:00.009Z,40.59
2018-04-12T18:45:29.593Z,40.82
2018-04-12T18:47:59.079Z,41.10
2018-04-12T18:50:28.706Z,41.14
2018-04-12T18:52:58.583Z,40.86
2018-04-12T18:55:28.382Z,40.81
2018-04-12T18:57:58.413Z,40.82
2018-04-12T19:00:28.422Z,40.70
2018-04-12T19:02:58.123Z,40.57
2018-04-12T19:05:27.689Z,40.78
2018-04-12T19:07:58.290Z,40.69
2018-04-12T19:10:27.787Z,40.67
2018-04-12T19:12:57.567Z,40.85
2018-04-12T19:15:27.165Z,40.61
2018-04-12T19:17:56.976Z,40.81
2018-04-12T19:20:26.530Z,41.16
2018-04-12T19:22:56.114Z,41.13
2018-04-12T19:25:25.505Z,41.33
2018-04-12T19:27:55.217Z,41.22
2018-04-12T19:30:24.907Z,41.29
2018-04-12T19:32:54.183Z,41.41
2018-04-12T19:35:23.353Z,40.20
2018-04-12T19:37:53.077Z,40.54
2018-04-12T19:40:23.140Z,40.94
2018-04-12T19:42:52.865Z,41.65
2018-04-12T19:45:22.227Z,41.22
2018-04-12T19:47:51.705Z,41.33
2018-04-12T19:50:21.541Z,41.40
2018-04-12T19:52:50.565Z,41.67
2018-04-12T19:55:20.097Z,41.61
2018-04-12T19:57:49.172Z,40.70
2018-04-12T20:00:18.266Z,40.57
2018-04-12T20:02:47.768Z,41.04
2018-04-12T20:05:16.776Z,40.79
2018-04-12T20:07:45.897Z,41.18
2018-04-12T20:10:15.235Z,41.40
2018-04-12T20:12:44.389Z,41.62
2018-04-12T20:15:13.920Z,41.74
2018-04-12T20:17:42.996Z,41.70
2018-04-12T20:20:12.364Z,41.82
2018-04-12T20:22:41.512Z,42.32
2018-04-12T20:25:11.018Z,42.32
2018-04-12T20:27:40.505Z,41.94
2018-04-12T20:30:09.800Z,42.06
2018-04-12T20:32:39.363Z,42.03
2018-04-12T20:35:08.707Z,41.26
2018-04-12T20:37:37.937Z,41.46
2018-04-12T20:40:07.040Z,41.46
2018-04-12T20:42:36.049Z,41.69
2018-04-12T20:45:05.466Z,41.79
2018-04-12T20:47:34.575Z,42.24
2018-04-12T20:50:03.577Z,42.20
2018-04-12T20:52:33.035Z,42.19
2018-04-12T20:55:02.446Z,41.92
2018-04-12T20:57:31.623Z,41.79
2018-04-12T21:00:00.542Z,42.07
2018-04-12T21:02:29.639Z,42.13
2018-04-12T21:04:58.897Z,42.29
2018-04-12T21:07:27.839Z,42.19
2018-04-12T21:09:58.375Z,42.34
2018-04-12T21:12:27.500Z,42.33
2018-04-12T21:14:56.477Z,42.03
